aviador You're here:

KMKT Decoded Metar

MANKATO in MN, USA
Report Time2017-11-22 19:56:00
UTC Time2017-11-22 21:50:51
Flight Rules Old
Wind200° at 12 kt
W.Decomp.*RWY 22: 11.0 kt HW 4.9 kt LCW
RWY 15: 8.3 kt HW 8.6 kt RCW
W.Rank200° ranks 14
Current wind is above 200° avg. (8.8)
Visibility9999 m
Phenomena:N/A
Clouds:Few 070 Hf
Scattered 090 Hf
Expected CloudBase > 2,800 ft AGL from Temp-Dew spread
CeilingNone
Temp-2°C (ISA -15)
Dew Point-9°C (59% RH)
AAT-9.3°C
QNH1021 hPa
Density Alt-1,040 ft
Elevation1,020 ft
Report Wrong Elevation
Raw Report
METAR KMKT 221956Z AUTO 20012KT 10SM FEW070 SCT090 M02/M09 A3014 RMK
AO2 SLP224 T10221094 FZRANO=

Extra information for KMKT:More info

Metar Taf Metar & Taf Last 4 Metars F.Rules Stats Wind Profile Meteogram Temp Stats Airport Information Weather charts Add Link Nearby VenuesMetar ALERT Operation Metar Decoded Social comments

AIRNAV info for KMKT